sensor_id;sensor_type;location;lat;lon;timestamp;temperature;humidity
26304;DHT22;57113;48.680;8.890;2022-08-23T00:00:59;24.90;76.10
26304;DHT22;57113;48.680;8.890;2022-08-23T00:03:25;24.90;76.10
26304;DHT22;57113;48.680;8.890;2022-08-23T00:05:51;24.90;76.10
26304;DHT22;57113;48.680;8.890;2022-08-23T00:08:16;24.90;76.10
26304;DHT22;57113;48.680;8.890;2022-08-23T00:10:42;24.90;76.10
26304;DHT22;57113;48.680;8.890;2022-08-23T00:13:08;24.90;76.20
26304;DHT22;57113;48.680;8.890;2022-08-23T00:15:34;24.90;76.10
26304;DHT22;57113;48.680;8.890;2022-08-23T00:18:00;24.90;76.20
26304;DHT22;57113;48.680;8.890;2022-08-23T00:20:26;24.90;77.00
26304;DHT22;57113;48.680;8.890;2022-08-23T00:22:52;24.90;76.20
26304;DHT22;57113;48.680;8.890;2022-08-23T00:25:17;24.90;76.20
26304;DHT22;57113;48.680;8.890;2022-08-23T00:27:43;24.90;76.20
26304;DHT22;57113;48.680;8.890;2022-08-23T00:30:10;24.90;76.30
26304;DHT22;57113;48.680;8.890;2022-08-23T00:32:37;24.90;76.20
26304;DHT22;57113;48.680;8.890;2022-08-23T00:35:04;24.80;76.10
26304;DHT22;57113;48.680;8.890;2022-08-23T00:37:31;24.80;76.20
26304;DHT22;57113;48.680;8.890;2022-08-23T00:39:58;24.80;76.20
26304;DHT22;57113;48.680;8.890;2022-08-23T00:42:37;24.90;76.30
26304;DHT22;57113;48.680;8.890;2022-08-23T00:45:36;24.90;76.30
26304;DHT22;57113;48.680;8.890;2022-08-23T00:48:22;24.80;76.20
26304;DHT22;57113;48.680;8.890;2022-08-23T00:51:04;24.80;76.30
26304;DHT22;57113;48.680;8.890;2022-08-23T00:53:36;24.80;76.30
26304;DHT22;57113;48.680;8.890;2022-08-23T00:56:06;24.80;76.20
26304;DHT22;57113;48.680;8.890;2022-08-23T00:58:34;24.80;77.10
26304;DHT22;57113;48.680;8.890;2022-08-23T01:01:01;24.80;76.30
26304;DHT22;57113;48.680;8.890;2022-08-23T01:03:29;24.80;76.30
26304;DHT22;57113;48.680;8.890;2022-08-23T01:08:25;24.80;76.30
26304;DHT22;57113;48.680;8.890;2022-08-23T01:10:55;24.80;76.30
26304;DHT22;57113;48.680;8.890;2022-08-23T01:14:02;24.80;76.40
26304;DHT22;57113;48.680;8.890;2022-08-23T01:16:55;24.80;76.30
26304;DHT22;57113;48.680;8.890;2022-08-23T01:22:11;24.80;76.30
26304;DHT22;57113;48.680;8.890;2022-08-23T01:24:38;24.80;76.50
26304;DHT22;57113;48.680;8.890;2022-08-23T01:27:04;24.70;76.40
26304;DHT22;57113;48.680;8.890;2022-08-23T01:29:31;24.70;76.30
26304;DHT22;57113;48.680;8.890;2022-08-23T01:31:57;24.70;76.40
26304;DHT22;57113;48.680;8.890;2022-08-23T01:34:27;24.70;76.40
26304;DHT22;57113;48.680;8.890;2022-08-23T01:36:53;24.70;76.40
26304;DHT22;57113;48.680;8.890;2022-08-23T01:39:19;24.70;76.40
26304;DHT22;57113;48.680;8.890;2022-08-23T01:41:45;24.70;76.40
26304;DHT22;57113;48.680;8.890;2022-08-23T01:44:12;24.70;76.40
26304;DHT22;57113;48.680;8.890;2022-08-23T01:46:37;24.70;76.40
26304;DHT22;57113;48.680;8.890;2022-08-23T01:49:04;24.70;76.40
26304;DHT22;57113;48.680;8.890;2022-08-23T01:51:30;24.70;76.40
26304;DHT22;57113;48.680;8.890;2022-08-23T01:53:56;24.70;76.40
26304;DHT22;57113;48.680;8.890;2022-08-23T01:56:23;24.70;76.40
26304;DHT22;57113;48.680;8.890;2022-08-23T01:58:49;24.70;76.40
26304;DHT22;57113;48.680;8.890;2022-08-23T02:01:17;24.70;76.40
26304;DHT22;57113;48.680;8.890;2022-08-23T02:03:43;24.70;76.40
26304;DHT22;57113;48.680;8.890;2022-08-23T02:06:10;24.60;76.40
26304;DHT22;57113;48.680;8.890;2022-08-23T02:08:36;24.60;76.40
26304;DHT22;57113;48.680;8.890;2022-08-23T02:11:22;24.60;76.40
26304;DHT22;57113;48.680;8.890;2022-08-23T02:13:50;24.60;76.50
26304;DHT22;57113;48.680;8.890;2022-08-23T02:16:27;24.60;76.50
26304;DHT22;57113;48.680;8.890;2022-08-23T02:18:54;24.60;76.50
26304;DHT22;57113;48.680;8.890;2022-08-23T02:21:21;24.60;76.50
26304;DHT22;57113;48.680;8.890;2022-08-23T02:23:47;24.60;76.50
26304;DHT22;57113;48.680;8.890;2022-08-23T02:26:14;24.60;76.40
26304;DHT22;57113;48.680;8.890;2022-08-23T02:28:40;24.60;76.50
26304;DHT22;57113;48.680;8.890;2022-08-23T02:31:06;24.60;76.50
26304;DHT22;57113;48.680;8.890;2022-08-23T02:33:32;24.60;76.50
26304;DHT22;57113;48.680;8.890;2022-08-23T02:35:57;24.60;76.50
26304;DHT22;57113;48.680;8.890;2022-08-23T02:38:23;24.50;76.50
26304;DHT22;57113;48.680;8.890;2022-08-23T02:40:49;24.50;76.50
26304;DHT22;57113;48.680;8.890;2022-08-23T02:43:15;24.50;76.50
26304;DHT22;57113;48.680;8.890;2022-08-23T02:45:41;24.50;76.50
26304;DHT22;57113;48.680;8.890;2022-08-23T02:48:08;24.50;76.50
26304;DHT22;57113;48.680;8.890;2022-08-23T02:50:34;24.50;76.50
26304;DHT22;57113;48.680;8.890;2022-08-23T02:53:01;24.50;76.60
26304;DHT22;57113;48.680;8.890;2022-08-23T02:55:26;24.50;76.60
26304;DHT22;57113;48.680;8.890;2022-08-23T02:57:52;24.50;76.60
26304;DHT22;57113;48.680;8.890;2022-08-23T03:00:19;24.50;76.60
26304;DHT22;57113;48.680;8.890;2022-08-23T03:02:45;24.50;76.60
26304;DHT22;57113;48.680;8.890;2022-08-23T03:05:11;24.50;76.60
26304;DHT22;57113;48.680;8.890;2022-08-23T03:07:37;24.50;76.60
26304;DHT22;57113;48.680;8.890;2022-08-23T03:10:04;24.50;76.60
26304;DHT22;57113;48.680;8.890;2022-08-23T03:12:30;24.50;76.60
26304;DHT22;57113;48.680;8.890;2022-08-23T03:14:56;24.50;76.60
26304;DHT22;57113;48.680;8.890;2022-08-23T03:17:22;24.50;76.70
26304;DHT22;57113;48.680;8.890;2022-08-23T03:19:48;24.50;76.60
26304;DHT22;57113;48.680;8.890;2022-08-23T03:22:14;24.40;76.60
26304;DHT22;57113;48.680;8.890;2022-08-23T03:24:39;24.40;76.60
26304;DHT22;57113;48.680;8.890;2022-08-23T03:27:05;24.40;76.60
26304;DHT22;57113;48.680;8.890;2022-08-23T03:29:32;24.40;76.60
26304;DHT22;57113;48.680;8.890;2022-08-23T03:31:58;24.40;76.60
26304;DHT22;57113;48.680;8.890;2022-08-23T03:34:24;24.40;76.60
26304;DHT22;57113;48.680;8.890;2022-08-23T03:36:50;24.40;76.60
26304;DHT22;57113;48.680;8.890;2022-08-23T03:39:16;24.40;76.70
26304;DHT22;57113;48.680;8.890;2022-08-23T03:41:42;24.40;76.70
26304;DHT22;57113;48.680;8.890;2022-08-23T03:44:07;24.40;76.70
26304;DHT22;57113;48.680;8.890;2022-08-23T03:46:33;24.40;76.70
26304;DHT22;57113;48.680;8.890;2022-08-23T03:49:00;24.40;76.70
26304;DHT22;57113;48.680;8.890;2022-08-23T03:51:28;24.30;76.70
26304;DHT22;57113;48.680;8.890;2022-08-23T03:53:54;24.40;76.70
26304;DHT22;57113;48.680;8.890;2022-08-23T03:56:31;24.30;77.40
26304;DHT22;57113;48.680;8.890;2022-08-23T03:58:59;24.30;76.70
26304;DHT22;57113;48.680;8.890;2022-08-23T04:01:25;24.30;76.70
26304;DHT22;57113;48.680;8.890;2022-08-23T04:03:51;24.30;76.70
26304;DHT22;57113;48.680;8.890;2022-08-23T04:06:17;24.30;76.70
26304;DHT22;57113;48.680;8.890;2022-08-23T04:08:44;24.30;76.70
26304;DHT22;57113;48.680;8.890;2022-08-23T04:11:11;24.30;76.70
26304;DHT22;57113;48.680;8.890;2022-08-23T04:13:39;24.30;76.70
26304;DHT22;57113;48.680;8.890;2022-08-23T04:16:05;24.30;76.70
26304;DHT22;57113;48.680;8.890;2022-08-23T04:18:33;24.30;76.80
26304;DHT22;57113;48.680;8.890;2022-08-23T04:21:00;24.30;76.80
26304;DHT22;57113;48.680;8.890;2022-08-23T04:23:26;24.20;76.80
26304;DHT22;57113;48.680;8.890;2022-08-23T04:25:53;24.20;76.70
26304;DHT22;57113;48.680;8.890;2022-08-23T04:28:19;24.30;76.80
26304;DHT22;57113;48.680;8.890;2022-08-23T04:30:45;24.20;76.80
26304;DHT22;57113;48.680;8.890;2022-08-23T04:33:11;24.20;76.80
26304;DHT22;57113;48.680;8.890;2022-08-23T04:35:37;24.20;76.80
26304;DHT22;57113;48.680;8.890;2022-08-23T04:38:03;24.20;76.80
26304;DHT22;57113;48.680;8.890;2022-08-23T04:40:29;24.20;76.80
26304;DHT22;57113;48.680;8.890;2022-08-23T04:43:13;24.20;76.80
26304;DHT22;57113;48.680;8.890;2022-08-23T04:45:39;24.20;76.80
26304;DHT22;57113;48.680;8.890;2022-08-23T04:48:05;24.20;76.90
26304;DHT22;57113;48.680;8.890;2022-08-23T04:50:31;24.20;76.90
26304;DHT22;57113;48.680;8.890;2022-08-23T04:52:57;24.20;76.90
26304;DHT22;57113;48.680;8.890;2022-08-23T04:55:23;24.20;76.90
26304;DHT22;57113;48.680;8.890;2022-08-23T04:57:49;24.20;77.00
26304;DHT22;57113;48.680;8.890;2022-08-23T05:00:15;24.10;76.90
26304;DHT22;57113;48.680;8.890;2022-08-23T05:02:42;24.10;76.90
26304;DHT22;57113;48.680;8.890;2022-08-23T05:05:09;24.10;77.00
26304;DHT22;57113;48.680;8.890;2022-08-23T05:07:35;24.10;77.00
26304;DHT22;57113;48.680;8.890;2022-08-23T05:10:03;24.10;77.00
26304;DHT22;57113;48.680;8.890;2022-08-23T05:12:29;24.10;77.10
26304;DHT22;57113;48.680;8.890;2022-08-23T05:14:55;24.10;77.10
26304;DHT22;57113;48.680;8.890;2022-08-23T05:17:21;24.10;77.10
26304;DHT22;57113;48.680;8.890;2022-08-23T05:19:47;24.00;77.00
26304;DHT22;57113;48.680;8.890;2022-08-23T05:22:12;24.10;77.20
26304;DHT22;57113;48.680;8.890;2022-08-23T05:24:38;24.10;77.20
26304;DHT22;57113;48.680;8.890;2022-08-23T05:27:04;24.10;77.20
26304;DHT22;57113;48.680;8.890;2022-08-23T05:29:30;24.00;77.20
26304;DHT22;57113;48.680;8.890;2022-08-23T05:31:55;24.00;77.10
26304;DHT22;57113;48.680;8.890;2022-08-23T05:34:21;24.00;77.10
26304;DHT22;57113;48.680;8.890;2022-08-23T05:36:47;24.00;77.10
26304;DHT22;57113;48.680;8.890;2022-08-23T05:39:14;24.00;77.20
26304;DHT22;57113;48.680;8.890;2022-08-23T05:41:41;24.00;77.20
26304;DHT22;57113;48.680;8.890;2022-08-23T05:44:07;24.00;77.20
26304;DHT22;57113;48.680;8.890;2022-08-23T05:46:35;24.00;77.20
26304;DHT22;57113;48.680;8.890;2022-08-23T05:49:01;24.00;77.20
26304;DHT22;57113;48.680;8.890;2022-08-23T05:51:29;24.00;77.20
26304;DHT22;57113;48.680;8.890;2022-08-23T05:54:13;24.00;77.30
26304;DHT22;57113;48.680;8.890;2022-08-23T05:56:40;24.00;77.30
26304;DHT22;57113;48.680;8.890;2022-08-23T05:59:09;24.00;77.30
26304;DHT22;57113;48.680;8.890;2022-08-23T06:01:36;24.00;77.30
26304;DHT22;57113;48.680;8.890;2022-08-23T06:04:04;24.00;77.40
26304;DHT22;57113;48.680;8.890;2022-08-23T06:06:30;24.00;77.40
26304;DHT22;57113;48.680;8.890;2022-08-23T06:08:56;24.00;77.40
26304;DHT22;57113;48.680;8.890;2022-08-23T06:11:25;23.90;77.40
26304;DHT22;57113;48.680;8.890;2022-08-23T06:14:00;23.90;77.40
26304;DHT22;57113;48.680;8.890;2022-08-23T06:16:35;23.90;77.40
26304;DHT22;57113;48.680;8.890;2022-08-23T06:19:02;23.90;77.40
26304;DHT22;57113;48.680;8.890;2022-08-23T06:21:28;23.90;77.50
26304;DHT22;57113;48.680;8.890;2022-08-23T06:23:54;23.90;77.50
26304;DHT22;57113;48.680;8.890;2022-08-23T06:26:31;23.90;77.50
26304;DHT22;57113;48.680;8.890;2022-08-23T06:29:00;23.90;77.60
26304;DHT22;57113;48.680;8.890;2022-08-23T06:31:27;23.90;77.60
26304;DHT22;57113;48.680;8.890;2022-08-23T06:34:14;23.90;77.60
26304;DHT22;57113;48.680;8.890;2022-08-23T06:36:41;23.90;77.60
26304;DHT22;57113;48.680;8.890;2022-08-23T06:39:08;23.90;77.60
26304;DHT22;57113;48.680;8.890;2022-08-23T06:41:35;23.90;77.60
26304;DHT22;57113;48.680;8.890;2022-08-23T06:44:01;23.90;77.70
26304;DHT22;57113;48.680;8.890;2022-08-23T06:46:28;23.90;77.70
26304;DHT22;57113;48.680;8.890;2022-08-23T06:48:55;23.90;77.70
26304;DHT22;57113;48.680;8.890;2022-08-23T06:51:23;23.90;77.70
26304;DHT22;57113;48.680;8.890;2022-08-23T06:53:54;23.90;77.80
26304;DHT22;57113;48.680;8.890;2022-08-23T06:56:22;23.90;77.80
26304;DHT22;57113;48.680;8.890;2022-08-23T06:58:49;23.90;77.80
26304;DHT22;57113;48.680;8.890;2022-08-23T07:01:29;23.90;77.80
26304;DHT22;57113;48.680;8.890;2022-08-23T07:03:58;23.90;77.80
26304;DHT22;57113;48.680;8.890;2022-08-23T07:06:26;23.90;77.80
26304;DHT22;57113;48.680;8.890;2022-08-23T07:08:53;23.90;77.90
26304;DHT22;57113;48.680;8.890;2022-08-23T07:11:19;23.90;77.90
26304;DHT22;57113;48.680;8.890;2022-08-23T07:13:46;23.90;77.90
26304;DHT22;57113;48.680;8.890;2022-08-23T07:16:12;23.90;78.00
26304;DHT22;57113;48.680;8.890;2022-08-23T07:18:38;23.90;78.10
26304;DHT22;57113;48.680;8.890;2022-08-23T07:21:05;23.90;78.10
26304;DHT22;57113;48.680;8.890;2022-08-23T07:23:32;23.90;78.20
26304;DHT22;57113;48.680;8.890;2022-08-23T07:26:00;23.90;78.20
26304;DHT22;57113;48.680;8.890;2022-08-23T07:28:27;23.90;78.20
26304;DHT22;57113;48.680;8.890;2022-08-23T07:30:53;24.00;78.30
26304;DHT22;57113;48.680;8.890;2022-08-23T07:33:23;24.00;78.30
26304;DHT22;57113;48.680;8.890;2022-08-23T07:35:49;24.00;78.30
26304;DHT22;57113;48.680;8.890;2022-08-23T07:38:16;24.00;78.30
26304;DHT22;57113;48.680;8.890;2022-08-23T07:40:43;24.00;78.20
26304;DHT22;57113;48.680;8.890;2022-08-23T07:43:09;24.10;78.10
26304;DHT22;57113;48.680;8.890;2022-08-23T07:48:02;24.10;78.00
26304;DHT22;57113;48.680;8.890;2022-08-23T07:50:28;24.10;78.00
26304;DHT22;57113;48.680;8.890;2022-08-23T07:52:54;24.20;78.00
26304;DHT22;57113;48.680;8.890;2022-08-23T07:55:20;24.20;78.00
26304;DHT22;57113;48.680;8.890;2022-08-23T07:57:46;24.20;78.00
26304;DHT22;57113;48.680;8.890;2022-08-23T08:00:12;24.20;77.90
26304;DHT22;57113;48.680;8.890;2022-08-23T08:02:38;24.20;77.90
26304;DHT22;57113;48.680;8.890;2022-08-23T08:05:04;24.20;77.80
26304;DHT22;57113;48.680;8.890;2022-08-23T08:07:30;24.20;77.80
26304;DHT22;57113;48.680;8.890;2022-08-23T08:09:56;24.20;77.80
26304;DHT22;57113;48.680;8.890;2022-08-23T08:12:22;24.30;77.80
26304;DHT22;57113;48.680;8.890;2022-08-23T08:14:48;24.20;77.60
26304;DHT22;57113;48.680;8.890;2022-08-23T08:17:15;24.30;77.70
26304;DHT22;57113;48.680;8.890;2022-08-23T08:19:42;24.30;77.70
26304;DHT22;57113;48.680;8.890;2022-08-23T08:22:08;24.30;77.60
26304;DHT22;57113;48.680;8.890;2022-08-23T08:24:34;24.30;77.60
26304;DHT22;57113;48.680;8.890;2022-08-23T08:26:59;24.30;77.50
26304;DHT22;57113;48.680;8.890;2022-08-23T08:29:25;24.40;77.60
26304;DHT22;57113;48.680;8.890;2022-08-23T08:31:50;24.40;77.60
26304;DHT22;57113;48.680;8.890;2022-08-23T08:34:16;24.30;77.50
26304;DHT22;57113;48.680;8.890;2022-08-23T08:36:48;24.40;77.60
26304;DHT22;57113;48.680;8.890;2022-08-23T08:39:17;24.40;77.60
26304;DHT22;57113;48.680;8.890;2022-08-23T08:41:57;24.40;77.60
26304;DHT22;57113;48.680;8.890;2022-08-23T08:44:50;24.40;77.50
26304;DHT22;57113;48.680;8.890;2022-08-23T08:47:26;24.40;75.60
26304;DHT22;57113;48.680;8.890;2022-08-23T08:53:00;24.50;76.20
26304;DHT22;57113;48.680;8.890;2022-08-23T08:55:26;24.50;76.20
26304;DHT22;57113;48.680;8.890;2022-08-23T08:57:53;24.50;76.20
26304;DHT22;57113;48.680;8.890;2022-08-23T09:00:32;24.50;76.30
26304;DHT22;57113;48.680;8.890;2022-08-23T09:03:00;24.50;76.30
26304;DHT22;57113;48.680;8.890;2022-08-23T09:05:33;24.50;76.30
26304;DHT22;57113;48.680;8.890;2022-08-23T09:19:00;24.60;76.30
26304;DHT22;57113;48.680;8.890;2022-08-23T09:21:38;24.70;76.20
26304;DHT22;57113;48.680;8.890;2022-08-23T09:24:05;24.70;76.20
26304;DHT22;57113;48.680;8.890;2022-08-23T09:26:30;24.70;76.10
26304;DHT22;57113;48.680;8.890;2022-08-23T09:29:10;24.70;76.10
26304;DHT22;57113;48.680;8.890;2022-08-23T09:31:45;24.70;76.10
26304;DHT22;57113;48.680;8.890;2022-08-23T09:39:46;24.80;76.10
26304;DHT22;57113;48.680;8.890;2022-08-23T09:42:32;24.80;76.00
26304;DHT22;57113;48.680;8.890;2022-08-23T09:45:00;24.80;76.00
26304;DHT22;57113;48.680;8.890;2022-08-23T09:47:35;24.80;75.90
26304;DHT22;57113;48.680;8.890;2022-08-23T09:50:25;24.90;75.90
26304;DHT22;57113;48.680;8.890;2022-08-23T09:53:01;24.90;75.90
26304;DHT22;57113;48.680;8.890;2022-08-23T09:55:50;24.90;75.80
26304;DHT22;57113;48.680;8.890;2022-08-23T09:58:38;24.90;75.80
26304;DHT22;57113;48.680;8.890;2022-08-23T10:01:23;24.90;75.80
26304;DHT22;57113;48.680;8.890;2022-08-23T10:04:15;25.00;75.80
26304;DHT22;57113;48.680;8.890;2022-08-23T10:06:42;25.00;75.70
26304;DHT22;57113;48.680;8.890;2022-08-23T10:09:31;25.00;75.70
26304;DHT22;57113;48.680;8.890;2022-08-23T10:11:58;25.00;75.60
26304;DHT22;57113;48.680;8.890;2022-08-23T10:14:26;25.00;75.60
26304;DHT22;57113;48.680;8.890;2022-08-23T10:22:46;25.10;75.50
26304;DHT22;57113;48.680;8.890;2022-08-23T10:25:44;25.10;75.40
26304;DHT22;57113;48.680;8.890;2022-08-23T10:37:06;25.20;75.20
26304;DHT22;57113;48.680;8.890;2022-08-23T10:39:44;25.20;75.20
26304;DHT22;57113;48.680;8.890;2022-08-23T10:45:15;25.20;75.00
26304;DHT22;57113;48.680;8.890;2022-08-23T10:50:27;25.20;75.20
26304;DHT22;57113;48.680;8.890;2022-08-23T10:53:04;25.30;75.20
26304;DHT22;57113;48.680;8.890;2022-08-23T10:55:46;25.40;69.10
26304;DHT22;57113;48.680;8.890;2022-08-23T10:58:31;25.50;67.70
26304;DHT22;57113;48.680;8.890;2022-08-23T11:00:59;25.60;68.20
26304;DHT22;57113;48.680;8.890;2022-08-23T11:03:31;25.60;68.80
26304;DHT22;57113;48.680;8.890;2022-08-23T11:16:59;25.50;70.60
26304;DHT22;57113;48.680;8.890;2022-08-23T11:19:45;25.50;70.80
26304;DHT22;57113;48.680;8.890;2022-08-23T11:22:24;25.50;71.00
26304;DHT22;57113;48.680;8.890;2022-08-23T11:27:38;25.50;71.50
26304;DHT22;57113;48.680;8.890;2022-08-23T11:33:43;25.60;71.80
26304;DHT22;57113;48.680;8.890;2022-08-23T11:36:16;25.60;71.80
26304;DHT22;57113;48.680;8.890;2022-08-23T11:43:41;25.60;72.00
26304;DHT22;57113;48.680;8.890;2022-08-23T12:01:02;25.60;72.30
26304;DHT22;57113;48.680;8.890;2022-08-23T12:03:55;25.70;72.50
26304;DHT22;57113;48.680;8.890;2022-08-23T12:14:35;25.70;72.50
26304;DHT22;57113;48.680;8.890;2022-08-23T12:20:24;25.70;72.50
26304;DHT22;57113;48.680;8.890;2022-08-23T12:23:04;25.70;72.50
26304;DHT22;57113;48.680;8.890;2022-08-23T12:25:32;25.80;72.50
26304;DHT22;57113;48.680;8.890;2022-08-23T12:28:51;25.80;72.60
26304;DHT22;57113;48.680;8.890;2022-08-23T12:31:02;25.70;72.50
26304;DHT22;57113;48.680;8.890;2022-08-23T12:39:00;25.70;72.50
26304;DHT22;57113;48.680;8.890;2022-08-23T12:44:20;25.80;72.70
26304;DHT22;57113;48.680;8.890;2022-08-23T12:46:48;25.80;72.70
26304;DHT22;57113;48.680;8.890;2022-08-23T12:49:30;25.80;72.70
26304;DHT22;57113;48.680;8.890;2022-08-23T12:51:58;25.80;72.70
26304;DHT22;57113;48.680;8.890;2022-08-23T12:54:43;25.80;72.70
26304;DHT22;57113;48.680;8.890;2022-08-23T12:57:16;25.80;72.70
26304;DHT22;57113;48.680;8.890;2022-08-23T13:00:07;25.90;72.70
26304;DHT22;57113;48.680;8.890;2022-08-23T13:02:42;25.80;72.50
26304;DHT22;57113;48.680;8.890;2022-08-23T13:05:36;25.90;72.60
26304;DHT22;57113;48.680;8.890;2022-08-23T13:08:08;25.90;72.60
26304;DHT22;57113;48.680;8.890;2022-08-23T13:10:37;25.90;72.70
26304;DHT22;57113;48.680;8.890;2022-08-23T13:13:03;25.80;72.60
26304;DHT22;57113;48.680;8.890;2022-08-23T13:15:39;25.90;72.70
26304;DHT22;57113;48.680;8.890;2022-08-23T13:18:05;25.90;72.70
26304;DHT22;57113;48.680;8.890;2022-08-23T13:20:31;25.90;72.50
26304;DHT22;57113;48.680;8.890;2022-08-23T13:25:31;25.90;72.40
26304;DHT22;57113;48.680;8.890;2022-08-23T13:28:01;25.90;72.40
26304;DHT22;57113;48.680;8.890;2022-08-23T13:30:32;25.90;72.50
26304;DHT22;57113;48.680;8.890;2022-08-23T13:35:44;25.90;72.60
26304;DHT22;57113;48.680;8.890;2022-08-23T13:41:07;25.90;72.70
26304;DHT22;57113;48.680;8.890;2022-08-23T13:43:45;25.90;72.60
26304;DHT22;57113;48.680;8.890;2022-08-23T13:46:25;25.90;73.50
26304;DHT22;57113;48.680;8.890;2022-08-23T13:49:04;25.90;72.60
26304;DHT22;57113;48.680;8.890;2022-08-23T13:51:34;25.90;72.70
26304;DHT22;57113;48.680;8.890;2022-08-23T13:54:08;25.90;72.70
26304;DHT22;57113;48.680;8.890;2022-08-23T13:56:39;26.00;72.80
26304;DHT22;57113;48.680;8.890;2022-08-23T13:59:31;25.90;72.80
26304;DHT22;57113;48.680;8.890;2022-08-23T14:01:59;26.00;72.80
26304;DHT22;57113;48.680;8.890;2022-08-23T14:04:25;26.00;72.80
26304;DHT22;57113;48.680;8.890;2022-08-23T14:06:51;26.00;72.80
26304;DHT22;57113;48.680;8.890;2022-08-23T14:09:17;26.00;72.80
26304;DHT22;57113;48.680;8.890;2022-08-23T14:11:43;26.00;73.50
26304;DHT22;57113;48.680;8.890;2022-08-23T14:14:11;26.00;72.70
26304;DHT22;57113;48.680;8.890;2022-08-23T14:16:37;26.00;72.70
26304;DHT22;57113;48.680;8.890;2022-08-23T14:19:04;26.00;72.80
26304;DHT22;57113;48.680;8.890;2022-08-23T14:21:30;26.00;72.80
26304;DHT22;57113;48.680;8.890;2022-08-23T14:23:56;26.00;72.90
26304;DHT22;57113;48.680;8.890;2022-08-23T14:26:22;26.00;72.80
26304;DHT22;57113;48.680;8.890;2022-08-23T14:28:48;26.00;73.00
26304;DHT22;57113;48.680;8.890;2022-08-23T14:31:14;26.00;72.80
26304;DHT22;57113;48.680;8.890;2022-08-23T14:33:41;26.00;72.80
26304;DHT22;57113;48.680;8.890;2022-08-23T14:36:07;26.00;72.70
26304;DHT22;57113;48.680;8.890;2022-08-23T14:38:33;26.00;72.70
26304;DHT22;57113;48.680;8.890;2022-08-23T14:41:05;26.00;72.80
26304;DHT22;57113;48.680;8.890;2022-08-23T14:43:31;26.00;72.80
26304;DHT22;57113;48.680;8.890;2022-08-23T14:45:57;26.00;72.80
26304;DHT22;57113;48.680;8.890;2022-08-23T14:48:23;26.00;72.80
26304;DHT22;57113;48.680;8.890;2022-08-23T14:50:53;26.00;72.80
26304;DHT22;57113;48.680;8.890;2022-08-23T14:53:22;26.00;72.80
26304;DHT22;57113;48.680;8.890;2022-08-23T14:55:48;26.00;72.70
26304;DHT22;57113;48.680;8.890;2022-08-23T14:58:18;26.00;72.80
26304;DHT22;57113;48.680;8.890;2022-08-23T15:00:44;26.00;72.80
26304;DHT22;57113;48.680;8.890;2022-08-23T15:03:18;26.00;72.80
26304;DHT22;57113;48.680;8.890;2022-08-23T15:05:44;26.00;72.90
26304;DHT22;57113;48.680;8.890;2022-08-23T15:08:10;26.00;72.90
26304;DHT22;57113;48.680;8.890;2022-08-23T15:10:36;26.00;73.70
26304;DHT22;57113;48.680;8.890;2022-08-23T15:13:02;26.00;73.00
26304;DHT22;57113;48.680;8.890;2022-08-23T15:15:28;26.00;73.00
26304;DHT22;57113;48.680;8.890;2022-08-23T15:17:58;26.00;73.00
26304;DHT22;57113;48.680;8.890;2022-08-23T15:20:32;26.00;73.00
26304;DHT22;57113;48.680;8.890;2022-08-23T15:22:58;26.00;73.00
26304;DHT22;57113;48.680;8.890;2022-08-23T15:25:27;26.00;73.00
26304;DHT22;57113;48.680;8.890;2022-08-23T15:27:53;26.00;73.00
26304;DHT22;57113;48.680;8.890;2022-08-23T15:30:20;26.00;73.10
26304;DHT22;57113;48.680;8.890;2022-08-23T15:32:46;26.00;73.10
26304;DHT22;57113;48.680;8.890;2022-08-23T15:35:12;26.00;73.00
26304;DHT22;57113;48.680;8.890;2022-08-23T15:37:38;26.10;73.00
26304;DHT22;57113;48.680;8.890;2022-08-23T15:40:05;26.10;73.00
26304;DHT22;57113;48.680;8.890;2022-08-23T15:42:31;26.10;73.10
26304;DHT22;57113;48.680;8.890;2022-08-23T15:44:57;26.10;73.10
26304;DHT22;57113;48.680;8.890;2022-08-23T15:47:26;26.10;73.20
26304;DHT22;57113;48.680;8.890;2022-08-23T15:49:53;26.00;73.10
26304;DHT22;57113;48.680;8.890;2022-08-23T15:52:19;26.10;73.20
26304;DHT22;57113;48.680;8.890;2022-08-23T15:54:45;26.00;73.20
26304;DHT22;57113;48.680;8.890;2022-08-23T15:57:16;26.00;73.20
26304;DHT22;57113;48.680;8.890;2022-08-23T15:59:43;26.00;73.20
26304;DHT22;57113;48.680;8.890;2022-08-23T16:02:09;26.00;73.30
26304;DHT22;57113;48.680;8.890;2022-08-23T16:04:35;26.00;73.30
26304;DHT22;57113;48.680;8.890;2022-08-23T16:07:07;26.00;73.40
26304;DHT22;57113;48.680;8.890;2022-08-23T16:09:35;26.00;73.40
26304;DHT22;57113;48.680;8.890;2022-08-23T16:12:02;25.90;73.40
26304;DHT22;57113;48.680;8.890;2022-08-23T16:14:27;25.90;73.40
26304;DHT22;57113;48.680;8.890;2022-08-23T16:16:55;25.90;73.50
26304;DHT22;57113;48.680;8.890;2022-08-23T16:19:21;25.90;73.60
26304;DHT22;57113;48.680;8.890;2022-08-23T16:21:47;25.90;73.60
26304;DHT22;57113;48.680;8.890;2022-08-23T16:24:13;25.90;73.60
26304;DHT22;57113;48.680;8.890;2022-08-23T16:26:42;25.90;73.70
26304;DHT22;57113;48.680;8.890;2022-08-23T16:29:10;25.90;73.70
26304;DHT22;57113;48.680;8.890;2022-08-23T16:31:38;25.90;73.70
26304;DHT22;57113;48.680;8.890;2022-08-23T16:34:09;25.90;73.60
26304;DHT22;57113;48.680;8.890;2022-08-23T16:36:35;25.90;73.60
26304;DHT22;57113;48.680;8.890;2022-08-23T16:39:01;26.00;73.70
26304;DHT22;57113;48.680;8.890;2022-08-23T16:41:27;25.90;73.60
26304;DHT22;57113;48.680;8.890;2022-08-23T16:43:52;26.00;73.70
26304;DHT22;57113;48.680;8.890;2022-08-23T16:46:18;26.00;73.70
26304;DHT22;57113;48.680;8.890;2022-08-23T16:48:46;26.00;73.80
26304;DHT22;57113;48.680;8.890;2022-08-23T16:51:11;26.00;73.80
26304;DHT22;57113;48.680;8.890;2022-08-23T16:53:38;26.00;73.80
26304;DHT22;57113;48.680;8.890;2022-08-23T16:56:05;26.00;73.80
26304;DHT22;57113;48.680;8.890;2022-08-23T16:58:31;26.00;74.50
26304;DHT22;57113;48.680;8.890;2022-08-23T17:00:57;26.00;73.80
26304;DHT22;57113;48.680;8.890;2022-08-23T17:03:24;26.10;74.30
26304;DHT22;57113;48.680;8.890;2022-08-23T17:05:49;26.00;73.80
26304;DHT22;57113;48.680;8.890;2022-08-23T17:08:15;26.00;73.70
26304;DHT22;57113;48.680;8.890;2022-08-23T17:10:41;26.00;73.70
26304;DHT22;57113;48.680;8.890;2022-08-23T17:13:08;26.10;73.70
26304;DHT22;57113;48.680;8.890;2022-08-23T17:15:35;26.10;73.80
26304;DHT22;57113;48.680;8.890;2022-08-23T17:18:02;26.10;73.80
26304;DHT22;57113;48.680;8.890;2022-08-23T17:20:31;26.10;73.80
26304;DHT22;57113;48.680;8.890;2022-08-23T17:22:57;26.10;73.80
26304;DHT22;57113;48.680;8.890;2022-08-23T17:25:24;26.10;73.80
26304;DHT22;57113;48.680;8.890;2022-08-23T17:27:52;26.10;73.80
26304;DHT22;57113;48.680;8.890;2022-08-23T17:30:20;26.10;73.80
26304;DHT22;57113;48.680;8.890;2022-08-23T17:32:46;26.00;73.70
26304;DHT22;57113;48.680;8.890;2022-08-23T17:35:15;26.10;73.80